createdAt,value
2023-04-05T00:01:34.088Z,10.70
2023-04-05T00:04:02.579Z,10.60
2023-04-05T00:06:30.925Z,9.60
2023-04-05T00:09:04.031Z,10.37
2023-04-05T00:11:34.867Z,10.77
2023-04-05T00:14:03.667Z,9.53
2023-04-05T00:16:30.852Z,10.60
2023-04-05T00:18:58.327Z,11.30
2023-04-05T00:21:25.508Z,11.70
2023-04-05T00:24:03.024Z,11.37
2023-04-05T00:26:30.004Z,12.13
2023-04-05T00:28:56.923Z,12.57
2023-04-05T00:31:24.005Z,13.37
2023-04-05T00:33:51.101Z,12.87
2023-04-05T00:36:20.462Z,12.40
2023-04-05T00:38:49.746Z,12.17
2023-04-05T00:41:17.008Z,12.40
2023-04-05T00:43:44.209Z,12.77
2023-04-05T00:46:11.611Z,12.43
2023-04-05T00:48:39.435Z,12.77
2023-04-05T00:51:09.647Z,13.20
2023-04-05T00:53:48.256Z,13.40
2023-04-05T00:56:16.821Z,13.43
2023-04-05T00:58:58.346Z,12.87
2023-04-05T01:01:28.097Z,13.13
2023-04-05T01:04:02.941Z,12.67
2023-04-05T01:06:53.486Z,12.50
2023-04-05T01:10:00.797Z,12.50
2023-04-05T01:12:39.746Z,12.67
2023-04-05T01:15:19.594Z,12.83
2023-04-05T01:18:03.009Z,12.07
2023-04-05T01:20:48.198Z,13.23
2023-04-05T01:23:49.590Z,12.17
2023-04-05T01:26:41.512Z,12.63
2023-04-05T01:29:52.868Z,12.07
2023-04-05T01:32:37.802Z,12.87
2023-04-05T01:35:35.316Z,13.33
2023-04-05T01:38:04.846Z,14.10
2023-04-05T01:40:35.536Z,13.10
2023-04-05T01:43:20.288Z,13.03
2023-04-05T01:45:56.760Z,13.40
2023-04-05T01:48:29.195Z,13.77
2023-04-05T01:50:58.319Z,14.87
2023-04-05T01:53:26.477Z,15.17
2023-04-05T01:56:15.278Z,14.17
2023-04-05T01:58:52.908Z,15.37
2023-04-05T02:01:22.373Z,15.80
2023-04-05T02:03:49.659Z,15.73
2023-04-05T02:06:22.146Z,15.07
2023-04-05T02:08:52.069Z,15.43
2023-04-05T02:11:19.166Z,15.30
2023-04-05T02:13:54.493Z,15.97
2023-04-05T02:16:35.741Z,15.60
2023-04-05T02:19:05.638Z,14.97
2023-04-05T02:21:35.783Z,14.97
2023-04-05T02:24:11.693Z,14.40
2023-04-05T02:26:41.604Z,14.73
2023-04-05T02:29:08.751Z,15.70
2023-04-05T02:31:39.390Z,15.33
2023-04-05T02:34:24.555Z,16.80
2023-04-05T02:37:12.479Z,13.70
2023-04-05T02:39:48.271Z,13.60
2023-04-05T02:42:15.851Z,13.67
2023-04-05T02:44:43.017Z,13.47
2023-04-05T02:47:09.961Z,14.90
2023-04-05T02:49:37.747Z,15.10
2023-04-05T02:52:05.637Z,15.80
2023-04-05T02:54:45.743Z,16.30
2023-04-05T02:57:16.394Z,14.13
2023-04-05T02:59:47.050Z,14.63
2023-04-05T03:02:15.389Z,15.03
2023-04-05T03:04:45.862Z,15.33
2023-04-05T03:07:18.598Z,16.47
2023-04-05T03:09:47.531Z,15.07
2023-04-05T03:12:14.782Z,15.07
2023-04-05T03:14:47.752Z,16.00
2023-04-05T03:17:17.668Z,16.07
2023-04-05T03:19:47.229Z,16.20
2023-04-05T03:22:14.187Z,15.13
2023-04-05T03:24:53.928Z,15.50
2023-04-05T03:27:42.567Z,14.20
2023-04-05T03:30:13.953Z,15.23
2023-04-05T03:32:56.895Z,13.90
2023-04-05T03:38:07.711Z,14.60
2023-04-05T03:40:35.652Z,15.13
2023-04-05T03:43:03.043Z,14.73
2023-04-05T03:45:30.218Z,15.23
2023-04-05T03:47:59.847Z,16.83
2023-04-05T03:50:37.696Z,15.37
2023-04-05T03:53:04.748Z,14.90
2023-04-05T03:55:32.095Z,16.13
2023-04-05T03:57:59.015Z,15.77
2023-04-05T04:00:25.951Z,15.67
2023-04-05T04:02:56.685Z,15.63
2023-04-05T04:05:23.687Z,14.93
2023-04-05T04:07:53.483Z,15.77
2023-04-05T04:10:20.523Z,16.43
2023-04-05T04:12:47.539Z,15.50
2023-04-05T04:15:19.138Z,16.17
2023-04-05T04:17:56.131Z,16.33
2023-04-05T04:20:29.246Z,16.40
2023-04-05T04:22:58.132Z,16.77
2023-04-05T04:25:26.613Z,16.63
2023-04-05T04:27:57.511Z,17.10
2023-04-05T04:30:25.831Z,18.50
2023-04-05T04:33:05.447Z,18.47
2023-04-05T04:35:34.956Z,18.53
2023-04-05T04:38:04.982Z,18.30
2023-04-05T04:40:41.673Z,18.00
2023-04-05T04:43:17.173Z,17.47
2023-04-05T04:45:48.292Z,19.07
2023-04-05T04:48:16.997Z,17.30
2023-04-05T04:50:45.654Z,16.47
2023-04-05T04:53:20.461Z,17.20
2023-04-05T04:55:50.053Z,18.20
2023-04-05T04:58:17.973Z,17.77
2023-04-05T05:00:45.282Z,15.53
2023-04-05T05:03:13.541Z,18.23
2023-04-05T05:05:50.163Z,18.77
2023-04-05T05:08:19.561Z,18.30
2023-04-05T05:10:53.602Z,18.07
2023-04-05T05:13:20.741Z,18.57
2023-04-05T05:15:48.517Z,18.87
2023-04-05T05:18:16.292Z,18.50
2023-04-05T05:20:43.477Z,17.40
2023-04-05T05:23:10.926Z,18.70
2023-04-05T05:25:38.659Z,20.27
2023-04-05T05:28:09.443Z,19.40
2023-04-05T05:30:36.450Z,20.50
2023-04-05T05:33:06.181Z,20.10
2023-04-05T05:35:35.202Z,18.90
2023-04-05T05:38:02.779Z,21.07
2023-04-05T05:40:29.667Z,20.20
2023-04-05T05:42:56.711Z,21.43
2023-04-05T05:45:23.641Z,20.60
2023-04-05T05:47:50.611Z,20.53
2023-04-05T05:50:25.640Z,19.57
2023-04-05T05:52:52.582Z,19.97
2023-04-05T05:55:19.503Z,19.97
2023-04-05T05:57:46.657Z,19.67
2023-04-05T06:00:14.759Z,19.73
2023-04-05T06:02:41.755Z,20.70
2023-04-05T06:05:09.027Z,20.50
2023-04-05T06:07:37.577Z,19.83
2023-04-05T06:10:06.526Z,18.47
2023-04-05T06:12:34.010Z,19.27
2023-04-05T06:15:12.513Z,18.83
2023-04-05T06:17:42.436Z,20.03
2023-04-05T06:20:13.726Z,20.33
2023-04-05T06:22:41.340Z,19.53
2023-04-05T06:25:09.451Z,19.50
2023-04-05T06:27:36.431Z,20.00
2023-04-05T06:30:04.656Z,20.03
2023-04-05T06:32:31.785Z,20.27
2023-04-05T06:35:00.822Z,20.63
2023-04-05T06:37:37.875Z,23.43
2023-04-05T06:40:05.671Z,23.27
2023-04-05T06:42:32.611Z,23.17
2023-04-05T06:44:59.721Z,21.93
2023-04-05T06:47:26.779Z,21.90
2023-04-05T06:50:08.842Z,20.60
2023-04-05T06:52:36.062Z,19.77
2023-04-05T06:55:03.391Z,20.03
2023-04-05T06:57:37.094Z,19.37
2023-04-05T07:00:20.207Z,20.20
2023-04-05T07:02:57.124Z,19.57
2023-04-05T07:05:24.181Z,18.53
2023-04-05T07:07:51.296Z,17.70
2023-04-05T07:10:18.742Z,17.40
2023-04-05T07:12:46.307Z,16.77
2023-04-05T07:15:13.463Z,17.97
2023-04-05T07:17:40.588Z,18.60
2023-04-05T07:20:08.303Z,20.43
2023-04-05T07:22:35.854Z,21.53
2023-04-05T07:25:02.859Z,23.40
2023-04-05T07:27:31.319Z,22.50
2023-04-05T07:29:58.412Z,21.93
2023-04-05T07:32:29.472Z,19.60
2023-04-05T07:34:56.826Z,19.33
2023-04-05T07:37:27.437Z,17.40
2023-04-05T07:39:54.404Z,16.20
2023-04-05T07:42:22.134Z,16.63
2023-04-05T07:44:49.186Z,15.37
2023-04-05T07:47:16.267Z,14.83
2023-04-05T07:49:44.433Z,14.97
2023-04-05T07:52:11.536Z,15.03
2023-04-05T07:54:39.974Z,15.00
2023-04-05T07:57:07.480Z,13.73
2023-04-05T07:59:35.475Z,13.45
2023-04-05T08:02:12.327Z,13.23
2023-04-05T08:04:47.230Z,14.07
2023-04-05T08:07:14.428Z,13.80
2023-04-05T08:09:41.495Z,13.68
2023-04-05T08:12:08.654Z,12.70
2023-04-05T08:14:35.998Z,10.98
2023-04-05T08:17:02.926Z,12.38
2023-04-05T08:19:29.989Z,9.93
2023-04-05T08:21:57.195Z,10.15
2023-04-05T08:24:24.255Z,9.85
2023-04-05T08:26:51.555Z,10.45
2023-04-05T08:29:18.581Z,9.65
2023-04-05T08:31:45.561Z,8.98
2023-04-05T08:34:12.763Z,8.80
2023-04-05T08:36:39.779Z,9.10
2023-04-05T08:39:06.821Z,8.35
2023-04-05T08:41:42.275Z,7.88
2023-04-05T08:44:10.830Z,8.23
2023-04-05T08:46:38.574Z,8.18
2023-04-05T08:49:07.992Z,8.27
2023-04-05T08:51:41.198Z,8.00
2023-04-05T08:54:08.538Z,7.75
2023-04-05T08:56:36.789Z,7.70
2023-04-05T08:59:16.338Z,7.63
2023-04-05T09:01:45.800Z,7.90
2023-04-05T09:04:18.693Z,7.97
2023-04-05T09:06:46.268Z,8.10
2023-04-05T09:09:21.684Z,7.50
2023-04-05T09:11:50.373Z,7.27
2023-04-05T09:14:18.813Z,7.67
2023-04-05T09:16:51.390Z,7.97
2023-04-05T09:19:21.236Z,7.03
2023-04-05T09:22:06.952Z,7.93
2023-04-05T09:24:47.450Z,7.67
2023-04-05T09:27:19.782Z,7.90
2023-04-05T09:29:53.642Z,8.10
2023-04-05T09:32:38.734Z,7.78
2023-04-05T09:35:06.474Z,8.02
2023-04-05T09:37:35.775Z,8.27
2023-04-05T09:40:06.945Z,7.70
2023-04-05T09:42:46.073Z,8.05
2023-04-05T09:45:14.210Z,8.48
2023-04-05T09:47:42.188Z,8.13
2023-04-05T09:50:15.622Z,8.65
2023-04-05T09:52:44.358Z,8.82
2023-04-05T09:55:12.211Z,8.77
2023-04-05T09:57:41.598Z,8.38
2023-04-05T10:00:19.644Z,8.57
2023-04-05T10:02:52.361Z,9.60
2023-04-05T10:05:24.281Z,8.85
2023-04-05T10:07:52.389Z,8.52
2023-04-05T10:10:24.998Z,9.00
2023-04-05T10:12:54.150Z,8.82
2023-04-05T10:15:21.408Z,8.70
2023-04-05T10:18:06.088Z,8.52
2023-04-05T10:20:39.668Z,8.27
2023-04-05T10:23:18.060Z,8.02
2023-04-05T10:25:57.295Z,8.85
2023-04-05T10:28:35.810Z,8.25
2023-04-05T10:31:42.439Z,8.63
2023-04-05T10:34:24.392Z,8.32
2023-04-05T10:36:57.176Z,8.13
2023-04-05T10:39:43.196Z,7.90
2023-04-05T10:42:27.908Z,8.38
2023-04-05T10:45:04.707Z,8.65
2023-04-05T10:47:39.048Z,8.52
2023-04-05T10:50:15.083Z,8.68
2023-04-05T10:52:42.684Z,9.35
2023-04-05T10:55:10.744Z,8.70
2023-04-05T10:57:38.707Z,8.88
2023-04-05T11:00:07.220Z,8.75
2023-04-05T11:02:36.588Z,8.13
2023-04-05T11:05:08.796Z,9.20
2023-04-05T11:07:46.126Z,7.82
2023-04-05T11:10:18.735Z,8.75
2023-04-05T11:12:48.756Z,7.57
2023-04-05T11:15:28.097Z,8.18
2023-04-05T11:18:11.664Z,8.65
2023-04-05T11:20:51.838Z,8.60
2023-04-05T11:23:25.823Z,9.05
2023-04-05T11:25:57.725Z,8.48
2023-04-05T11:28:40.550Z,8.93
2023-04-05T11:31:19.360Z,8.68
2023-04-05T11:33:58.608Z,8.25
2023-04-05T11:36:45.542Z,8.88
2023-04-05T11:39:18.689Z,9.07
2023-04-05T11:41:53.610Z,9.05
2023-04-05T11:44:22.126Z,8.80
2023-04-05T11:46:49.545Z,8.85
2023-04-05T11:49:16.833Z,8.38
2023-04-05T11:51:44.289Z,9.07
2023-04-05T11:54:11.228Z,9.10
2023-04-05T11:56:38.192Z,9.05
2023-04-05T11:59:05.135Z,9.23
2023-04-05T12:01:32.023Z,8.25
2023-04-05T12:03:59.143Z,8.95
2023-04-05T12:06:27.091Z,9.30
2023-04-05T12:08:55.953Z,8.98
2023-04-05T12:11:28.369Z,9.18
2023-04-05T12:14:01.002Z,8.98
2023-04-05T12:16:29.798Z,8.63
2023-04-05T12:19:00.999Z,8.82
2023-04-05T12:21:28.669Z,8.55
2023-04-05T12:23:55.799Z,9.23
2023-04-05T12:26:23.238Z,8.73
2023-04-05T12:28:58.492Z,8.70
2023-04-05T12:31:47.156Z,8.25
2023-04-05T12:34:15.058Z,9.13
2023-04-05T12:36:46.654Z,9.02
2023-04-05T12:39:17.510Z,9.15
2023-04-05T12:41:44.490Z,9.02
2023-04-05T12:44:30.283Z,9.27
2023-04-05T12:47:02.765Z,9.40
2023-04-05T12:49:29.860Z,9.00
2023-04-05T12:52:04.466Z,9.55
2023-04-05T12:54:32.346Z,8.52
2023-04-05T12:57:02.137Z,8.80
2023-04-05T12:59:29.222Z,9.30
2023-04-05T13:01:56.171Z,9.82
2023-04-05T13:04:23.404Z,9.65
2023-04-05T13:06:50.451Z,9.93
2023-04-05T13:09:17.399Z,9.40
2023-04-05T13:11:44.742Z,9.63
2023-04-05T13:14:11.752Z,9.45
2023-04-05T13:16:38.861Z,9.43
2023-04-05T13:19:05.841Z,9.57
2023-04-05T13:21:32.973Z,9.68
2023-04-05T13:24:00.122Z,10.13
2023-04-05T13:26:27.606Z,9.90
2023-04-05T13:28:54.494Z,9.40
2023-04-05T13:31:21.465Z,10.10
2023-04-05T13:33:48.376Z,9.70
2023-04-05T13:36:15.735Z,10.05
2023-04-05T13:38:42.692Z,10.20
2023-04-05T13:41:09.753Z,10.65
2023-04-05T13:43:36.693Z,11.43
2023-04-05T13:46:03.711Z,11.15
2023-04-05T13:48:30.653Z,11.20
2023-04-05T13:50:57.583Z,9.82
2023-04-05T13:53:26.539Z,10.35
2023-04-05T13:55:54.931Z,9.65
2023-04-05T13:58:21.803Z,10.13
2023-04-05T14:00:48.770Z,10.80
2023-04-05T14:03:16.283Z,10.50
2023-04-05T14:05:43.256Z,10.15
2023-04-05T14:08:10.168Z,10.23
2023-04-05T14:10:37.236Z,10.60
2023-04-05T14:13:04.146Z,11.77
2023-04-05T14:15:31.806Z,10.50
2023-04-05T14:17:58.854Z,10.75
2023-04-05T14:20:25.983Z,10.27
2023-04-05T14:22:52.956Z,10.00
2023-04-05T14:25:19.895Z,9.75
2023-04-05T14:27:47.045Z,10.18
2023-04-05T14:30:14.293Z,10.15
2023-04-05T14:32:41.648Z,10.35
2023-04-05T14:35:09.399Z,10.85
2023-04-05T14:37:36.586Z,10.20
2023-04-05T14:40:03.798Z,10.25
2023-04-05T14:42:45.283Z,10.50
2023-04-05T14:45:16.482Z,9.63
2023-04-05T14:47:43.496Z,10.93
2023-04-05T14:50:11.044Z,10.13
2023-04-05T14:52:39.911Z,10.80
2023-04-05T14:55:07.406Z,10.30
2023-04-05T14:57:35.664Z,10.13
2023-04-05T15:00:02.806Z,10.47
2023-04-05T15:02:31.601Z,9.43
2023-04-05T15:05:01.296Z,9.63
2023-04-05T15:07:28.638Z,9.00
2023-04-05T15:09:55.761Z,9.98
2023-04-05T15:12:23.135Z,9.10
2023-04-05T15:14:54.477Z,9.65
2023-04-05T15:17:21.991Z,9.27
2023-04-05T15:19:48.978Z,9.25
2023-04-05T15:22:16.311Z,10.55
2023-04-05T15:24:44.349Z,9.82
2023-04-05T15:27:11.932Z,9.23
2023-04-05T15:29:38.921Z,10.75
2023-04-05T15:32:06.247Z,10.23
2023-04-05T15:34:33.260Z,9.45
2023-04-05T15:37:00.375Z,8.70
2023-04-05T15:39:27.289Z,9.73
2023-04-05T15:41:57.739Z,10.32
2023-04-05T15:44:24.756Z,10.20
2023-04-05T15:46:51.727Z,10.23
2023-04-05T15:49:18.727Z,9.60
2023-04-05T15:51:45.699Z,9.30
2023-04-05T15:54:18.487Z,9.02
2023-04-05T15:56:45.848Z,10.40
2023-04-05T15:59:14.271Z,9.13
2023-04-05T16:01:41.587Z,9.50
2023-04-05T16:04:08.837Z,10.70
2023-04-05T16:06:35.835Z,10.57
2023-04-05T16:09:02.988Z,10.07
2023-04-05T16:11:30.950Z,9.40
2023-04-05T16:13:58.633Z,9.93
2023-04-05T16:16:35.377Z,10.43
2023-04-05T16:19:10.420Z,9.97
2023-04-05T16:21:37.387Z,9.33
2023-04-05T16:24:05.448Z,10.13
2023-04-05T16:26:32.426Z,11.38
2023-04-05T16:28:59.617Z,10.23
2023-04-05T16:31:27.168Z,10.32
2023-04-05T16:33:54.646Z,11.30
2023-04-05T16:36:21.639Z,10.27
2023-04-05T16:38:48.918Z,10.50
2023-04-05T16:41:15.988Z,10.50
2023-04-05T16:43:43.165Z,11.25
2023-04-05T16:46:10.187Z,11.05
2023-04-05T16:48:37.122Z,11.35
2023-04-05T16:51:06.417Z,11.20
2023-04-05T16:53:34.026Z,11.27
2023-04-05T16:56:01.109Z,10.82
2023-04-05T16:58:28.110Z,11.30
2023-04-05T17:00:58.707Z,11.45
2023-04-05T17:03:26.417Z,11.50
2023-04-05T17:05:53.574Z,11.15
2023-04-05T17:08:20.544Z,11.50
2023-04-05T17:10:47.704Z,11.70
2023-04-05T17:13:15.016Z,11.45
2023-04-05T17:15:42.709Z,11.23
2023-04-05T17:18:11.657Z,10.02
2023-04-05T17:20:38.762Z,10.67
2023-04-05T17:23:05.968Z,11.00
2023-04-05T17:25:32.915Z,11.37
2023-04-05T17:28:00.106Z,10.93
2023-04-05T17:30:27.165Z,10.27
2023-04-05T17:32:54.110Z,10.38
2023-04-05T17:35:21.058Z,10.27
2023-04-05T17:37:48.116Z,10.23
2023-04-05T17:40:16.289Z,11.60
2023-04-05T17:42:43.264Z,10.23
2023-04-05T17:45:11.373Z,9.80
2023-04-05T17:47:38.679Z,10.13
2023-04-05T17:50:06.527Z,10.00
2023-04-05T17:52:33.540Z,10.33
2023-04-05T17:55:00.662Z,10.90
2023-04-05T17:57:27.616Z,10.57
2023-04-05T17:59:54.712Z,12.00
2023-04-05T18:02:21.827Z,12.10
2023-04-05T18:04:49.200Z,11.57
2023-04-05T18:07:16.215Z,11.80
2023-04-05T18:09:43.204Z,10.60
2023-04-05T18:12:10.655Z,11.23
2023-04-05T18:14:37.859Z,10.63
2023-04-05T18:17:07.443Z,10.57
2023-04-05T18:19:34.717Z,11.00
2023-04-05T18:22:02.013Z,10.77
2023-04-05T18:24:29.576Z,12.03
2023-04-05T18:26:57.648Z,12.20
2023-04-05T18:29:28.497Z,12.13
2023-04-05T18:31:56.710Z,11.73
2023-04-05T18:34:24.213Z,11.33
2023-04-05T18:36:51.322Z,11.40
2023-04-05T18:39:20.137Z,11.77
2023-04-05T18:41:47.325Z,12.23
2023-04-05T18:44:14.354Z,11.77
2023-04-05T18:46:42.627Z,12.57
2023-04-05T18:49:09.874Z,14.33
2023-04-05T18:51:37.613Z,14.30
2023-04-05T18:54:04.831Z,13.50
2023-04-05T18:56:31.805Z,12.63
2023-04-05T18:58:58.837Z,15.33
2023-04-05T19:01:26.081Z,16.60
2023-04-05T19:03:53.181Z,16.20
2023-04-05T19:06:20.332Z,18.17
2023-04-05T19:08:48.194Z,17.10
2023-04-05T19:11:15.457Z,16.23
2023-04-05T19:13:42.468Z,16.47
2023-04-05T19:16:09.508Z,15.83
2023-04-05T19:18:36.550Z,16.23
2023-04-05T19:21:03.745Z,15.57
2023-04-05T19:23:31.354Z,16.50
2023-04-05T19:25:58.940Z,15.57
2023-04-05T19:28:27.146Z,16.00
2023-04-05T19:30:54.686Z,17.23
2023-04-05T19:33:22.053Z,15.90
2023-04-05T19:35:49.357Z,16.43
2023-04-05T19:38:16.473Z,15.93
2023-04-05T19:40:43.487Z,17.47
2023-04-05T19:43:11.587Z,16.37
2023-04-05T19:45:38.613Z,17.00
2023-04-05T19:48:36.792Z,16.53
2023-04-05T19:51:14.098Z,17.77
2023-04-05T19:53:51.581Z,16.27
2023-04-05T19:56:28.416Z,16.80
2023-04-05T19:59:11.084Z,16.93
2023-04-05T20:01:42.379Z,16.97
2023-04-05T20:04:19.515Z,16.53
2023-04-05T20:06:53.168Z,17.37
2023-04-05T20:09:25.514Z,17.73
2023-04-05T20:12:06.237Z,16.97
2023-04-05T20:14:45.717Z,17.67
2023-04-05T20:17:13.311Z,18.47
2023-04-05T20:19:56.651Z,19.33
2023-04-05T20:22:24.090Z,18.93
2023-04-05T20:24:51.850Z,18.60
2023-04-05T20:27:18.809Z,18.60
2023-04-05T20:29:46.145Z,19.43
2023-04-05T20:32:14.087Z,18.83
2023-04-05T20:34:43.780Z,19.00
2023-04-05T20:37:13.006Z,18.67
2023-04-05T20:39:40.024Z,18.03
2023-04-05T20:42:09.371Z,18.33
2023-04-05T20:44:36.447Z,17.87
2023-04-05T20:47:03.522Z,19.13
2023-04-05T20:49:30.492Z,18.10
2023-04-05T20:51:58.071Z,18.83
2023-04-05T20:54:25.344Z,18.60
2023-04-05T20:56:52.494Z,17.57
2023-04-05T20:59:19.548Z,17.40
2023-04-05T21:01:47.609Z,18.23
2023-04-05T21:04:15.071Z,17.73
2023-04-05T21:06:42.386Z,17.67
2023-04-05T21:09:09.975Z,17.83
2023-04-05T21:11:37.526Z,16.90
2023-04-05T21:14:04.656Z,17.47
2023-04-05T21:16:31.923Z,16.37
2023-04-05T21:18:58.943Z,15.57
2023-04-05T21:21:26.255Z,16.83
2023-04-05T21:23:53.298Z,15.20
2023-04-05T21:26:21.317Z,14.90
2023-04-05T21:28:48.277Z,14.40
2023-04-05T21:31:15.548Z,14.37
2023-04-05T21:33:42.569Z,14.50
2023-04-05T21:36:09.782Z,14.30
2023-04-05T21:38:36.797Z,13.87
2023-04-05T21:41:03.794Z,14.90
2023-04-05T21:43:30.898Z,14.27
2023-04-05T21:45:57.837Z,14.23
2023-04-05T21:48:24.960Z,14.23
2023-04-05T21:50:52.026Z,14.77
2023-04-05T21:53:19.069Z,14.63
2023-04-05T21:55:46.214Z,14.40
2023-04-05T21:58:13.288Z,14.77
2023-04-05T22:00:40.446Z,14.37
2023-04-05T22:03:07.558Z,14.63
2023-04-05T22:05:38.679Z,15.70
2023-04-05T22:08:07.531Z,14.77
2023-04-05T22:10:35.784Z,14.97
2023-04-05T22:13:02.888Z,14.87
2023-04-05T22:15:29.952Z,15.00
2023-04-05T22:17:56.948Z,14.83
2023-04-05T22:20:23.894Z,14.63
2023-04-05T22:22:51.067Z,15.00
2023-04-05T22:25:17.980Z,14.63
2023-04-05T22:27:44.948Z,15.03
2023-04-05T22:30:12.308Z,14.37
2023-04-05T22:32:39.275Z,14.70
2023-04-05T22:35:07.003Z,14.10
2023-04-05T22:37:36.557Z,14.63
2023-04-05T22:40:04.924Z,13.70
2023-04-05T22:42:32.135Z,14.37
2023-04-05T22:44:59.564Z,13.97
2023-04-05T22:47:27.292Z,14.43
2023-04-05T22:49:54.599Z,13.70
2023-04-05T22:52:21.835Z,13.93
2023-04-05T22:54:48.851Z,14.63
2023-04-05T22:57:16.319Z,14.60
2023-04-05T22:59:43.464Z,14.77
2023-04-05T23:02:12.381Z,15.03
2023-04-05T23:04:39.731Z,13.10
2023-04-05T23:07:06.871Z,14.37
2023-04-05T23:09:33.923Z,14.67
2023-04-05T23:12:01.005Z,15.00
2023-04-05T23:14:28.079Z,15.20
2023-04-05T23:16:55.115Z,15.07
2023-04-05T23:19:22.287Z,15.33
2023-04-05T23:21:49.336Z,14.67
2023-04-05T23:24:16.287Z,14.57
2023-04-05T23:26:43.269Z,15.03
2023-04-05T23:29:10.743Z,15.23
2023-04-05T23:31:37.792Z,15.40
2023-04-05T23:34:04.883Z,13.90
2023-04-05T23:36:32.455Z,15.47
2023-04-05T23:39:02.635Z,15.80
2023-04-05T23:41:29.791Z,14.97
2023-04-05T23:43:56.926Z,15.67
2023-04-05T23:46:23.956Z,15.17
2023-04-05T23:48:51.103Z,15.70
2023-04-05T23:51:18.332Z,15.70
2023-04-05T23:53:45.578Z,16.03
2023-04-05T23:56:12.566Z,15.30
2023-04-05T23:58:42.222Z,15.63
